createdAt,value
2022-08-11T00:01:52.056Z,3.33
2022-08-11T00:05:02.559Z,3.20
2022-08-11T00:08:07.364Z,3.43
2022-08-11T00:11:14.009Z,3.43
2022-08-11T00:14:22.404Z,3.63
2022-08-11T00:17:31.951Z,3.60
2022-08-11T00:20:43.244Z,3.00
2022-08-11T00:23:54.639Z,3.60
2022-08-11T00:26:58.435Z,3.50
2022-08-11T00:30:03.047Z,3.73
2022-08-11T00:33:08.385Z,3.53
2022-08-11T00:36:23.457Z,4.00
2022-08-11T00:39:32.754Z,3.83
2022-08-11T00:42:56.472Z,3.50
2022-08-11T00:46:19.873Z,4.10
2022-08-11T00:49:42.551Z,3.30
2022-08-11T00:53:26.187Z,3.43
2022-08-11T00:57:37.273Z,3.90
2022-08-11T01:01:15.557Z,3.33
2022-08-11T01:05:35.239Z,3.17
2022-08-11T01:09:22.644Z,3.60
2022-08-11T01:12:44.971Z,3.63
2022-08-11T01:16:39.791Z,3.10
2022-08-11T01:20:47.556Z,3.63
2022-08-11T01:25:01.033Z,3.53
2022-08-11T01:28:59.398Z,3.30
2022-08-11T01:32:41.088Z,3.60
2022-08-11T01:36:29.473Z,2.97
2022-08-11T01:40:11.506Z,4.53
2022-08-11T01:44:31.254Z,3.73
2022-08-11T01:47:54.505Z,3.57
2022-08-11T01:51:30.325Z,4.30
2022-08-11T01:54:43.890Z,3.97
2022-08-11T01:57:57.876Z,3.60
2022-08-11T02:01:24.243Z,3.57
2022-08-11T02:04:37.161Z,3.57
2022-08-11T02:07:59.419Z,3.33
2022-08-11T02:11:35.871Z,3.57
2022-08-11T02:15:05.388Z,3.80
2022-08-11T02:18:22.997Z,4.27
2022-08-11T02:22:00.783Z,3.73
2022-08-11T02:25:10.799Z,4.30
2022-08-11T02:28:29.067Z,4.37
2022-08-11T02:32:24.445Z,4.43
2022-08-11T02:35:47.843Z,4.23
2022-08-11T02:39:02.028Z,4.73
2022-08-11T02:42:33.409Z,4.20
2022-08-11T02:45:54.797Z,4.57
2022-08-11T02:49:37.242Z,4.47
2022-08-11T02:52:52.313Z,4.30
2022-08-11T02:56:09.779Z,4.30
2022-08-11T02:59:53.326Z,4.13
2022-08-11T03:03:17.557Z,4.70
2022-08-11T03:06:39.881Z,4.27
2022-08-11T03:09:56.575Z,4.00
2022-08-11T03:13:29.758Z,3.63
2022-08-11T03:16:56.655Z,4.17
2022-08-11T03:20:33.332Z,4.00
2022-08-11T03:23:57.050Z,4.07
2022-08-11T03:27:11.987Z,4.17
2022-08-11T03:30:19.980Z,4.33
2022-08-11T03:33:48.036Z,4.30
2022-08-11T03:37:52.070Z,4.13
2022-08-11T03:42:01.514Z,4.90
2022-08-11T03:45:21.042Z,4.57
2022-08-11T03:48:42.367Z,4.90
2022-08-11T03:51:57.962Z,4.47
2022-08-11T03:55:15.767Z,4.40
2022-08-11T03:58:59.303Z,5.40
2022-08-11T04:02:56.364Z,4.60
2022-08-11T04:06:51.409Z,5.10
2022-08-11T04:11:04.941Z,4.53
2022-08-11T04:15:08.342Z,5.03
2022-08-11T04:19:22.983Z,4.47
2022-08-11T04:22:55.530Z,4.60
2022-08-11T04:26:56.225Z,4.70
2022-08-11T04:30:12.095Z,5.37
2022-08-11T04:34:07.113Z,5.40
2022-08-11T04:37:44.360Z,5.80
2022-08-11T04:42:11.151Z,5.30
2022-08-11T04:45:49.388Z,4.70
2022-08-11T04:50:03.100Z,5.30
2022-08-11T04:53:59.938Z,5.70
2022-08-11T04:57:33.661Z,5.53
2022-08-11T05:01:15.244Z,5.07
2022-08-11T05:05:11.993Z,5.00
2022-08-11T05:08:59.521Z,5.77
2022-08-11T05:12:31.134Z,6.87
2022-08-11T05:16:08.132Z,5.87
2022-08-11T05:19:36.877Z,5.93
2022-08-11T05:23:08.680Z,5.10
2022-08-11T05:26:47.207Z,5.40
2022-08-11T05:30:20.674Z,5.47
2022-08-11T05:33:53.975Z,4.73
2022-08-11T05:37:25.565Z,4.63
2022-08-11T05:40:51.220Z,4.83
2022-08-11T05:44:19.964Z,4.93
2022-08-11T05:47:46.000Z,5.17
2022-08-11T05:51:13.955Z,5.00
2022-08-11T05:54:38.866Z,4.17
2022-08-11T05:57:51.112Z,4.40
2022-08-11T06:00:55.811Z,4.80
2022-08-11T06:04:15.787Z,4.27
2022-08-11T06:07:48.414Z,4.60
2022-08-11T06:10:53.623Z,4.47
2022-08-11T06:13:58.867Z,4.63
2022-08-11T06:17:06.725Z,3.83
2022-08-11T06:20:13.256Z,4.17
2022-08-11T06:23:20.620Z,4.50
2022-08-11T06:26:25.535Z,4.53
2022-08-11T06:29:38.111Z,4.13
2022-08-11T06:32:57.703Z,4.30
2022-08-11T06:36:10.698Z,4.50
2022-08-11T06:39:25.731Z,4.57
2022-08-11T06:42:45.792Z,4.17
2022-08-11T06:46:03.325Z,4.20
2022-08-11T06:49:30.293Z,4.17
2022-08-11T06:52:37.665Z,4.27
2022-08-11T06:56:04.679Z,3.80
2022-08-11T06:59:26.443Z,4.00
2022-08-11T07:02:35.017Z,3.73
2022-08-11T07:05:49.927Z,3.90
2022-08-11T07:09:47.734Z,3.80
2022-08-11T07:13:44.736Z,3.40
2022-08-11T07:16:45.675Z,3.27
2022-08-11T07:20:14.045Z,3.60
2022-08-11T07:23:37.005Z,3.57
2022-08-11T07:27:06.856Z,3.67
2022-08-11T07:30:13.456Z,3.27
2022-08-11T07:34:05.270Z,3.70
2022-08-11T07:36:57.913Z,3.27
2022-08-11T07:40:04.620Z,3.50
2022-08-11T07:43:08.883Z,3.10
2022-08-11T07:46:31.678Z,2.80
2022-08-11T07:49:57.189Z,3.10
2022-08-11T07:53:03.892Z,3.20
2022-08-11T07:56:09.331Z,3.17
2022-08-11T08:00:03.530Z,3.27
2022-08-11T08:03:23.695Z,3.30
2022-08-11T08:06:46.842Z,2.87
2022-08-11T08:10:10.111Z,2.80
2022-08-11T08:13:36.356Z,3.00
2022-08-11T08:16:59.082Z,3.13
2022-08-11T08:20:07.399Z,3.23
2022-08-11T08:23:11.845Z,3.03
2022-08-11T08:26:35.573Z,2.77
2022-08-11T08:29:57.754Z,2.80
2022-08-11T08:33:02.363Z,3.00
2022-08-11T08:36:15.548Z,3.03
2022-08-11T08:39:22.097Z,3.00
2022-08-11T08:42:30.767Z,3.33
2022-08-11T08:45:38.742Z,2.77
2022-08-11T08:48:47.228Z,3.03
2022-08-11T08:52:02.896Z,3.10
2022-08-11T08:55:23.998Z,2.90
2022-08-11T08:58:28.844Z,2.40
2022-08-11T09:01:42.071Z,2.63
2022-08-11T09:04:49.215Z,2.70
2022-08-11T09:07:58.157Z,2.43
2022-08-11T09:11:21.320Z,2.47
2022-08-11T09:14:49.783Z,2.10
2022-08-11T09:18:03.819Z,2.13
2022-08-11T09:21:08.632Z,2.30
2022-08-11T09:24:32.318Z,2.00
2022-08-11T09:27:38.975Z,2.37
2022-08-11T09:30:55.227Z,2.07
2022-08-11T09:34:00.697Z,2.20
2022-08-11T09:37:28.509Z,1.90
2022-08-11T09:40:52.889Z,1.93
2022-08-11T09:44:19.826Z,2.23
2022-08-11T09:47:30.019Z,1.53
2022-08-11T09:50:35.391Z,1.50
2022-08-11T09:53:42.639Z,1.50
2022-08-11T09:57:25.636Z,1.13
2022-08-11T10:00:37.311Z,1.50
2022-08-11T10:03:44.831Z,1.40
2022-08-11T10:07:07.045Z,1.40
2022-08-11T10:10:12.247Z,1.50
2022-08-11T10:14:10.061Z,1.37
2022-08-11T10:16:51.873Z,1.40
2022-08-11T10:20:04.163Z,1.30
2022-08-11T10:23:29.723Z,1.70
2022-08-11T10:26:51.895Z,1.43
2022-08-11T10:30:18.571Z,1.20
2022-08-11T10:33:45.746Z,1.13
2022-08-11T10:37:03.585Z,1.80
2022-08-11T10:40:11.205Z,1.43
2022-08-11T10:43:53.333Z,1.10
2022-08-11T10:46:59.357Z,1.40
2022-08-11T10:50:22.919Z,1.23
2022-08-11T10:53:44.822Z,1.20
2022-08-11T10:57:06.716Z,1.40
2022-08-11T11:00:15.221Z,1.70
2022-08-11T11:03:23.993Z,1.40
2022-08-11T11:06:36.903Z,1.50
2022-08-11T11:09:48.441Z,1.40
2022-08-11T11:13:15.908Z,1.30
2022-08-11T11:16:39.880Z,1.10
2022-08-11T11:19:45.969Z,1.47
2022-08-11T11:22:54.823Z,1.43
2022-08-11T11:26:33.225Z,1.67
2022-08-11T11:30:01.100Z,1.50
2022-08-11T11:33:19.596Z,1.47
2022-08-11T11:36:42.568Z,1.60
2022-08-11T11:39:48.273Z,1.50
2022-08-11T11:42:57.960Z,1.30
2022-08-11T11:46:02.203Z,1.40
2022-08-11T11:49:16.718Z,1.40
2022-08-11T11:52:24.104Z,1.23
2022-08-11T11:55:29.362Z,1.40
2022-08-11T11:58:50.755Z,1.80
2022-08-11T12:01:57.451Z,1.43
2022-08-11T12:05:02.653Z,1.30
2022-08-11T12:08:16.275Z,1.40
2022-08-11T12:11:40.475Z,1.23
2022-08-11T12:14:47.268Z,1.40
2022-08-11T12:17:52.889Z,1.30
2022-08-11T12:20:56.795Z,1.37
2022-08-11T12:24:21.844Z,1.60
2022-08-11T12:27:28.501Z,1.40
2022-08-11T12:30:32.623Z,1.70
2022-08-11T12:33:39.394Z,1.30
2022-08-11T12:36:47.536Z,1.87
2022-08-11T12:40:49.442Z,1.30
2022-08-11T12:44:05.639Z,1.20
2022-08-11T12:47:11.115Z,1.40
2022-08-11T12:50:32.815Z,1.50
2022-08-11T12:53:44.735Z,1.57
2022-08-11T12:57:17.070Z,1.73
2022-08-11T13:00:57.641Z,1.60
2022-08-11T13:04:19.336Z,1.80
2022-08-11T13:07:24.180Z,1.60
2022-08-11T13:10:43.531Z,1.67
2022-08-11T13:13:57.119Z,1.80
2022-08-11T13:17:19.750Z,1.60
2022-08-11T13:20:26.851Z,1.20
2022-08-11T13:23:31.110Z,1.50
2022-08-11T13:26:47.395Z,1.77
2022-08-11T13:30:15.818Z,1.60
2022-08-11T13:33:21.177Z,1.37
2022-08-11T13:36:28.647Z,1.20
2022-08-11T13:39:35.714Z,1.47
2022-08-11T13:42:41.847Z,1.67
2022-08-11T13:45:48.858Z,2.30
2022-08-11T13:49:00.713Z,2.00
2022-08-11T13:52:08.236Z,1.57
2022-08-11T13:55:50.933Z,1.60
2022-08-11T13:58:46.213Z,1.53
2022-08-11T14:02:21.812Z,1.70
2022-08-11T14:05:30.420Z,1.77
2022-08-11T14:08:43.951Z,1.70
2022-08-11T14:12:22.264Z,1.80
2022-08-11T14:15:34.176Z,1.73
2022-08-11T14:18:50.649Z,1.93
2022-08-11T14:22:08.779Z,2.03
2022-08-11T14:25:15.213Z,1.60
2022-08-11T14:28:35.190Z,1.50
2022-08-11T14:31:45.075Z,1.87
2022-08-11T14:34:51.641Z,1.73
2022-08-11T14:37:57.227Z,1.63
2022-08-11T14:41:18.706Z,1.60
2022-08-11T14:44:40.388Z,1.90
2022-08-11T14:47:49.895Z,1.27
2022-08-11T14:50:55.157Z,1.60
2022-08-11T14:54:14.560Z,1.77
2022-08-11T14:57:19.199Z,1.90
2022-08-11T15:00:44.250Z,1.63
2022-08-11T15:04:27.325Z,1.97
2022-08-11T15:07:16.839Z,1.57
2022-08-11T15:10:22.829Z,1.83
2022-08-11T15:13:26.826Z,1.80
2022-08-11T15:16:49.134Z,1.80
2022-08-11T15:20:12.046Z,1.70
2022-08-11T15:23:35.348Z,1.50
2022-08-11T15:26:59.225Z,1.97
2022-08-11T15:30:33.217Z,1.80
2022-08-11T15:33:59.016Z,2.17
2022-08-11T15:37:26.447Z,2.10
2022-08-11T15:40:56.587Z,1.60
2022-08-11T15:44:44.654Z,1.80
2022-08-11T15:47:58.407Z,1.37
2022-08-11T15:51:13.707Z,1.83
2022-08-11T15:54:24.588Z,1.47
2022-08-11T15:57:49.327Z,1.63
2022-08-11T16:01:13.477Z,1.70
2022-08-11T16:04:27.143Z,1.63
2022-08-11T16:07:36.897Z,1.83
2022-08-11T16:10:45.959Z,2.00
2022-08-11T16:14:13.124Z,1.33
2022-08-11T16:17:19.150Z,1.77
2022-08-11T16:20:28.942Z,1.87
2022-08-11T16:23:32.810Z,2.90
2022-08-11T16:27:09.501Z,1.83
2022-08-11T16:30:10.890Z,2.00
2022-08-11T16:33:50.468Z,1.63
2022-08-11T16:36:58.379Z,1.60
2022-08-11T16:40:02.468Z,1.50
2022-08-11T16:43:28.804Z,1.90
2022-08-11T16:46:52.335Z,2.07
2022-08-11T16:50:00.580Z,1.97
2022-08-11T16:53:04.799Z,2.00
2022-08-11T16:56:11.355Z,2.07
2022-08-11T16:59:27.658Z,2.43
2022-08-11T17:02:58.648Z,2.03
2022-08-11T17:06:23.038Z,1.80
2022-08-11T17:09:48.980Z,2.00
2022-08-11T17:13:11.526Z,1.87
2022-08-11T17:16:25.076Z,2.10
2022-08-11T17:20:43.086Z,4.27
2022-08-11T17:23:20.009Z,3.53
2022-08-11T17:26:46.775Z,1.80
2022-08-11T17:29:55.648Z,2.07
2022-08-11T17:33:16.744Z,3.23
2022-08-11T17:36:24.185Z,9.43
2022-08-11T17:39:33.633Z,2.43
2022-08-11T17:42:57.536Z,1.60
2022-08-11T17:46:18.859Z,2.00
2022-08-11T17:49:24.316Z,2.30
2022-08-11T17:52:48.127Z,2.03
2022-08-11T17:56:11.784Z,1.97
2022-08-11T17:59:36.106Z,2.40
2022-08-11T18:03:01.840Z,1.70
2022-08-11T18:06:12.745Z,1.67
2022-08-11T18:09:39.905Z,2.00
2022-08-11T18:13:03.393Z,1.63
2022-08-11T18:16:25.491Z,1.60
2022-08-11T18:19:46.877Z,1.93
2022-08-11T18:23:11.790Z,1.73
2022-08-11T18:26:39.890Z,1.67
2022-08-11T18:30:04.533Z,2.00
2022-08-11T18:37:24.766Z,1.57
2022-08-11T18:40:49.727Z,1.80
2022-08-11T18:44:18.374Z,1.90
2022-08-11T18:47:42.920Z,2.00
2022-08-11T18:51:29.703Z,1.80
2022-08-11T18:54:52.981Z,1.90
2022-08-11T18:58:19.493Z,1.90
2022-08-11T19:01:46.025Z,1.70
2022-08-11T19:05:08.575Z,1.80
2022-08-11T19:08:31.374Z,1.87
2022-08-11T19:11:55.373Z,2.10
2022-08-11T19:15:25.614Z,1.90
2022-08-11T19:18:52.052Z,1.80
2022-08-11T19:22:15.789Z,1.97
2022-08-11T19:25:41.297Z,1.67
2022-08-11T19:29:07.751Z,2.43
2022-08-11T19:32:30.748Z,1.70
2022-08-11T19:35:54.189Z,2.37
2022-08-11T19:39:17.732Z,1.90
2022-08-11T19:42:40.053Z,1.83
2022-08-11T19:46:04.989Z,2.00
2022-08-11T19:49:28.437Z,1.50
2022-08-11T19:52:53.503Z,1.70
2022-08-11T19:56:15.762Z,1.70
2022-08-11T19:59:38.305Z,1.87
2022-08-11T20:02:59.767Z,1.70
2022-08-11T20:06:26.314Z,1.70
2022-08-11T20:10:01.257Z,1.90
2022-08-11T20:13:29.871Z,2.40
2022-08-11T20:16:52.568Z,2.00
2022-08-11T20:20:16.060Z,2.10
2022-08-11T20:23:38.444Z,1.53
2022-08-11T20:27:01.739Z,1.93
2022-08-11T20:30:24.928Z,1.93
2022-08-11T20:33:45.887Z,1.80
2022-08-11T20:37:10.653Z,1.87
2022-08-11T20:40:35.403Z,1.90
2022-08-11T20:44:08.562Z,2.27
2022-08-11T20:47:34.006Z,1.90
2022-08-11T20:51:17.054Z,1.70
2022-08-11T20:54:43.776Z,2.03
2022-08-11T20:58:09.906Z,2.03
2022-08-11T21:01:43.166Z,2.10
2022-08-11T21:05:04.691Z,1.97
2022-08-11T21:08:27.816Z,1.87
2022-08-11T21:11:52.004Z,1.83
2022-08-11T21:15:38.625Z,2.03
2022-08-11T21:19:01.984Z,1.93
2022-08-11T21:22:38.578Z,2.17
2022-08-11T21:26:06.606Z,1.70
2022-08-11T21:29:31.300Z,2.50
2022-08-11T21:32:53.698Z,7.27
2022-08-11T21:36:17.353Z,1.97
2022-08-11T21:39:41.476Z,2.07
2022-08-11T21:43:05.755Z,1.90
2022-08-11T21:46:29.270Z,1.80
2022-08-11T21:49:59.375Z,3.43
2022-08-11T21:53:22.556Z,2.10
2022-08-11T21:56:45.907Z,2.30
2022-08-11T22:00:12.812Z,2.90
2022-08-11T22:03:44.412Z,2.07
2022-08-11T22:07:11.719Z,1.93
2022-08-11T22:10:40.632Z,2.00
2022-08-11T22:14:08.098Z,2.07
2022-08-11T22:17:29.480Z,1.90
2022-08-11T22:20:53.245Z,2.13
2022-08-11T22:24:18.263Z,2.03
2022-08-11T22:27:51.978Z,1.70
2022-08-11T22:31:16.199Z,2.07
2022-08-11T22:34:39.171Z,1.70
2022-08-11T22:38:17.570Z,1.80
2022-08-11T22:41:40.105Z,2.13
2022-08-11T22:45:02.727Z,1.80
2022-08-11T22:48:26.565Z,1.70
2022-08-11T22:51:48.232Z,1.50
2022-08-11T22:55:11.049Z,1.70
2022-08-11T22:58:34.819Z,1.97
2022-08-11T23:01:58.237Z,1.60
2022-08-11T23:05:21.864Z,1.80
2022-08-11T23:08:44.316Z,1.80
2022-08-11T23:12:10.339Z,1.87
2022-08-11T23:15:32.473Z,1.80
2022-08-11T23:18:58.439Z,1.50
2022-08-11T23:22:22.019Z,1.87
2022-08-11T23:25:45.800Z,1.63
2022-08-11T23:29:07.510Z,1.70
2022-08-11T23:32:28.557Z,2.00
2022-08-11T23:35:57.960Z,1.73
2022-08-11T23:39:20.783Z,1.90
2022-08-11T23:42:42.102Z,2.03
2022-08-11T23:46:07.883Z,1.80
2022-08-11T23:49:29.740Z,1.60
2022-08-11T23:52:53.834Z,1.60
2022-08-11T23:56:16.234Z,1.73
2022-08-11T23:59:37.659Z,1.60
